createdAt,value
2023-04-25T00:01:55.614Z,2.17
2023-04-25T00:04:22.742Z,2.73
2023-04-25T00:06:49.596Z,2.40
2023-04-25T00:09:16.191Z,2.30
2023-04-25T00:11:42.984Z,2.13
2023-04-25T00:14:09.384Z,2.60
2023-04-25T00:16:36.634Z,2.37
2023-04-25T00:19:03.942Z,2.90
2023-04-25T00:21:32.483Z,2.33
2023-04-25T00:23:58.923Z,2.80
2023-04-25T00:26:26.288Z,2.40
2023-04-25T00:28:52.696Z,2.67
2023-04-25T00:31:19.242Z,2.80
2023-04-25T00:33:45.729Z,2.87
2023-04-25T00:36:12.279Z,2.97
2023-04-25T00:38:39.260Z,3.10
2023-04-25T00:41:07.293Z,3.00
2023-04-25T00:43:34.799Z,2.87
2023-04-25T00:46:02.028Z,3.20
2023-04-25T00:48:28.662Z,3.00
2023-04-25T00:50:57.610Z,3.30
2023-04-25T00:53:25.809Z,3.13
2023-04-25T00:55:53.312Z,3.17
2023-04-25T00:58:21.377Z,3.03
2023-04-25T01:00:50.200Z,3.40
2023-04-25T01:03:18.402Z,3.10
2023-04-25T01:05:44.930Z,3.20
2023-04-25T01:08:11.860Z,3.10
2023-04-25T01:10:38.276Z,2.97
2023-04-25T01:13:05.452Z,3.37
2023-04-25T01:15:31.912Z,3.27
2023-04-25T01:17:59.626Z,2.90
2023-04-25T01:20:27.343Z,3.07
2023-04-25T01:22:54.361Z,2.70
2023-04-25T01:25:22.264Z,2.77
2023-04-25T01:27:48.868Z,2.97
2023-04-25T01:30:15.694Z,2.87
2023-04-25T01:32:43.925Z,2.87
2023-04-25T01:35:12.799Z,3.20
2023-04-25T01:37:40.555Z,3.13
2023-04-25T01:40:08.252Z,3.40
2023-04-25T01:42:36.428Z,2.90
2023-04-25T01:45:03.366Z,2.93
2023-04-25T01:47:31.803Z,3.00
2023-04-25T01:49:59.446Z,2.90
2023-04-25T01:52:25.851Z,3.07
2023-04-25T01:54:53.558Z,3.07
2023-04-25T01:57:20.821Z,3.47
2023-04-25T01:59:47.402Z,2.90
2023-04-25T02:02:14.173Z,2.93
2023-04-25T02:04:40.885Z,3.40
2023-04-25T02:07:07.863Z,3.30
2023-04-25T02:09:34.336Z,3.40
2023-04-25T02:12:01.317Z,3.40
2023-04-25T02:14:27.812Z,3.60
2023-04-25T02:16:54.575Z,3.20
2023-04-25T02:19:21.238Z,3.60
2023-04-25T02:21:47.622Z,3.53
2023-04-25T02:24:14.008Z,3.40
2023-04-25T02:26:40.525Z,3.20
2023-04-25T02:29:06.884Z,2.97
2023-04-25T02:31:33.393Z,3.70
2023-04-25T02:33:59.818Z,3.00
2023-04-25T02:36:27.284Z,3.33
2023-04-25T02:38:54.362Z,4.00
2023-04-25T02:41:22.203Z,3.20
2023-04-25T02:43:49.045Z,2.93
2023-04-25T02:46:19.135Z,2.87
2023-04-25T02:48:49.503Z,3.40
2023-04-25T02:51:17.312Z,3.00
2023-04-25T02:53:43.728Z,3.43
2023-04-25T02:56:10.488Z,3.17
2023-04-25T02:58:37.049Z,3.20
2023-04-25T03:01:03.546Z,3.10
2023-04-25T03:03:30.328Z,3.30
2023-04-25T03:05:56.749Z,3.30
2023-04-25T03:08:23.789Z,3.20
2023-04-25T03:10:52.084Z,3.10
2023-04-25T03:13:18.493Z,3.30
2023-04-25T03:15:45.049Z,3.43
2023-04-25T03:18:11.862Z,3.30
2023-04-25T03:20:40.371Z,3.30
2023-04-25T03:23:06.757Z,3.20
2023-04-25T03:25:33.120Z,3.17
2023-04-25T03:27:59.532Z,3.10
2023-04-25T03:30:26.014Z,3.50
2023-04-25T03:32:52.406Z,3.33
2023-04-25T03:35:18.821Z,3.17
2023-04-25T03:37:48.188Z,3.13
2023-04-25T03:40:14.651Z,3.67
2023-04-25T03:42:42.489Z,3.37
2023-04-25T03:45:10.547Z,3.47
2023-04-25T03:47:37.019Z,3.10
2023-04-25T03:50:03.883Z,3.30
2023-04-25T03:52:30.520Z,2.90
2023-04-25T03:54:56.900Z,2.90
2023-04-25T03:57:23.343Z,3.13
2023-04-25T03:59:50.050Z,3.17
2023-04-25T04:02:16.596Z,3.00
2023-04-25T04:04:45.140Z,3.00
2023-04-25T04:07:11.939Z,3.40
2023-04-25T04:09:38.332Z,3.00
2023-04-25T04:12:04.879Z,3.07
2023-04-25T04:14:31.259Z,3.03
2023-04-25T04:16:57.673Z,2.90
2023-04-25T04:19:24.071Z,2.83
2023-04-25T04:21:50.465Z,2.90
2023-04-25T04:24:17.786Z,3.00
2023-04-25T04:26:45.920Z,3.10
2023-04-25T04:29:12.502Z,3.10
2023-04-25T04:31:38.937Z,2.80
2023-04-25T04:34:05.747Z,3.17
2023-04-25T04:36:32.169Z,3.10
2023-04-25T04:38:58.560Z,3.20
2023-04-25T04:41:24.985Z,3.40
2023-04-25T04:43:51.750Z,3.37
2023-04-25T04:46:19.455Z,3.20
2023-04-25T04:48:46.691Z,3.07
2023-04-25T04:51:13.062Z,3.07
2023-04-25T04:53:39.436Z,3.63
2023-04-25T04:56:06.011Z,3.70
2023-04-25T04:58:32.430Z,3.77
2023-04-25T05:00:58.913Z,3.93
2023-04-25T05:03:26.076Z,4.03
2023-04-25T05:05:52.487Z,4.20
2023-04-25T05:08:19.336Z,4.70
2023-04-25T05:10:45.752Z,4.07
2023-04-25T05:13:12.372Z,4.33
2023-04-25T05:15:38.774Z,4.47
2023-04-25T05:18:05.685Z,4.80
2023-04-25T05:20:32.148Z,4.90
2023-04-25T05:22:58.546Z,4.60
2023-04-25T05:25:25.002Z,4.50
2023-04-25T05:27:53.662Z,4.67
2023-04-25T05:30:20.604Z,5.03
2023-04-25T05:32:48.266Z,4.40
2023-04-25T05:35:14.721Z,4.10
2023-04-25T05:37:41.394Z,4.37
2023-04-25T05:40:08.538Z,4.50
2023-04-25T05:42:34.946Z,4.20
2023-04-25T05:45:02.002Z,4.40
2023-04-25T05:47:28.454Z,4.23
2023-04-25T05:49:55.298Z,3.77
2023-04-25T05:52:21.723Z,4.17
2023-04-25T05:54:48.267Z,4.17
2023-04-25T05:57:26.330Z,3.80
2023-04-25T05:59:53.221Z,3.90
2023-04-25T06:02:21.770Z,4.00
2023-04-25T06:04:51.381Z,4.13
2023-04-25T06:07:18.797Z,4.00
2023-04-25T06:09:46.111Z,3.60
2023-04-25T06:12:12.506Z,3.47
2023-04-25T06:14:39.085Z,3.40
2023-04-25T06:17:09.413Z,3.40
2023-04-25T06:19:37.045Z,3.57
2023-04-25T06:22:03.623Z,3.40
2023-04-25T06:24:30.013Z,3.00
2023-04-25T06:26:56.410Z,3.10
2023-04-25T06:29:22.824Z,2.80
2023-04-25T06:31:49.254Z,3.07
2023-04-25T06:34:16.259Z,2.60
2023-04-25T06:36:42.708Z,3.10
2023-04-25T06:39:10.011Z,3.00
2023-04-25T06:41:36.465Z,2.90
2023-04-25T06:44:02.872Z,3.10
2023-04-25T06:46:29.660Z,2.83
2023-04-25T06:48:56.278Z,2.83
2023-04-25T06:51:24.284Z,3.33
2023-04-25T06:53:51.060Z,2.67
2023-04-25T06:56:17.477Z,2.33
2023-04-25T06:58:43.858Z,2.97
2023-04-25T07:01:11.390Z,3.00
2023-04-25T07:03:39.035Z,2.70
2023-04-25T07:06:05.854Z,2.90
2023-04-25T07:08:32.253Z,3.23
2023-04-25T07:10:58.679Z,2.70
2023-04-25T07:13:25.157Z,3.07
2023-04-25T07:15:51.666Z,3.20
2023-04-25T07:18:18.095Z,2.63
2023-04-25T07:20:44.745Z,2.77
2023-04-25T07:23:11.138Z,2.70
2023-04-25T07:25:37.982Z,2.80
2023-04-25T07:28:04.436Z,3.00
2023-04-25T07:30:31.152Z,2.93
2023-04-25T07:32:57.565Z,3.30
2023-04-25T07:35:24.186Z,2.90
2023-04-25T07:37:50.584Z,2.70
2023-04-25T07:40:17.722Z,2.90
2023-04-25T07:42:44.192Z,3.17
2023-04-25T07:45:11.477Z,2.60
2023-04-25T07:47:37.930Z,2.80
2023-04-25T07:50:04.503Z,3.10
2023-04-25T07:52:30.887Z,3.20
2023-04-25T07:54:58.456Z,3.07
2023-04-25T07:57:25.272Z,3.13
2023-04-25T07:59:51.747Z,3.03
2023-04-25T08:02:18.190Z,3.33
2023-04-25T08:04:44.892Z,3.03
2023-04-25T08:07:11.486Z,3.07
2023-04-25T08:09:37.894Z,3.17
2023-04-25T08:12:05.801Z,2.90
2023-04-25T08:14:36.767Z,2.80
2023-04-25T08:17:04.592Z,2.60
2023-04-25T08:19:31.791Z,2.77
2023-04-25T08:21:58.268Z,3.03
2023-04-25T08:24:24.815Z,3.00
2023-04-25T08:26:52.388Z,2.60
2023-04-25T08:29:18.867Z,2.83
2023-04-25T08:31:45.624Z,2.53
2023-04-25T08:34:12.210Z,2.50
2023-04-25T08:36:40.538Z,2.60
2023-04-25T08:46:06.865Z,2.87
2023-04-25T08:48:37.339Z,2.80
2023-04-25T08:53:36.186Z,2.60
2023-04-25T08:56:03.598Z,2.43
2023-04-25T08:58:30.315Z,2.53
2023-04-25T09:00:56.787Z,2.43
2023-04-25T09:03:23.570Z,2.57
2023-04-25T09:05:51.112Z,2.80
2023-04-25T09:08:17.927Z,2.80
2023-04-25T09:10:44.409Z,3.17
2023-04-25T09:13:13.905Z,2.80
2023-04-25T09:15:55.018Z,2.30
2023-04-25T09:18:30.621Z,2.23
2023-04-25T09:21:13.002Z,2.40
2023-04-25T09:23:47.389Z,2.10
2023-04-25T09:26:19.893Z,2.40
2023-04-25T09:28:48.698Z,2.47
2023-04-25T09:31:25.838Z,2.70
2023-04-25T09:34:00.857Z,3.07
2023-04-25T09:36:28.671Z,3.20
2023-04-25T09:38:55.184Z,3.10
2023-04-25T09:41:25.804Z,2.90
2023-04-25T09:43:52.334Z,2.30
2023-04-25T09:46:22.020Z,1.50
2023-04-25T09:48:52.225Z,1.43
2023-04-25T09:51:18.674Z,2.10
2023-04-25T09:53:47.604Z,2.30
2023-04-25T09:56:14.536Z,2.63
2023-04-25T09:58:41.769Z,2.50
2023-04-25T10:01:12.336Z,2.90
2023-04-25T10:03:41.109Z,3.47
2023-04-25T10:06:19.451Z,3.30
2023-04-25T10:08:51.942Z,3.27
2023-04-25T10:11:19.555Z,2.87
2023-04-25T10:13:46.813Z,2.50
2023-04-25T10:16:50.738Z,2.50
2023-04-25T10:19:17.601Z,2.20
2023-04-25T10:21:51.367Z,3.30
2023-04-25T10:24:18.038Z,2.40
2023-04-25T10:26:44.698Z,2.13
2023-04-25T10:29:11.160Z,2.10
2023-04-25T10:31:47.482Z,2.17
2023-04-25T10:34:14.518Z,3.30
2023-04-25T10:36:41.050Z,3.73
2023-04-25T10:39:09.779Z,4.27
2023-04-25T10:41:54.135Z,3.83
2023-04-25T10:44:20.661Z,4.13
2023-04-25T10:46:47.243Z,5.27
2023-04-25T10:49:31.719Z,4.80
2023-04-25T10:52:13.155Z,4.30
2023-04-25T10:54:47.160Z,4.13
2023-04-25T10:57:30.468Z,4.67
2023-04-25T11:00:10.647Z,4.57
2023-04-25T11:02:44.079Z,4.60
2023-04-25T11:05:11.326Z,4.80
2023-04-25T11:08:03.930Z,4.70
2023-04-25T11:10:37.774Z,3.73
2023-04-25T11:13:05.518Z,2.93
2023-04-25T11:15:31.961Z,2.77
2023-04-25T11:17:58.713Z,2.33
2023-04-25T11:20:27.235Z,2.10
2023-04-25T11:22:53.925Z,2.00
2023-04-25T11:25:21.082Z,2.00
2023-04-25T11:27:58.432Z,1.50
2023-04-25T11:30:26.790Z,1.50
2023-04-25T11:32:54.486Z,1.53
2023-04-25T11:35:23.860Z,1.77
2023-04-25T11:37:51.111Z,2.23
2023-04-25T11:40:17.813Z,1.80
2023-04-25T11:42:46.379Z,1.93
2023-04-25T11:45:13.498Z,1.80
2023-04-25T11:47:40.010Z,1.97
2023-04-25T11:50:08.881Z,2.30
2023-04-25T11:52:46.205Z,2.30
2023-04-25T11:55:18.019Z,2.30
2023-04-25T11:57:46.772Z,2.50
2023-04-25T12:00:18.135Z,2.30
2023-04-25T12:02:52.300Z,2.27
2023-04-25T12:07:48.120Z,2.17
2023-04-25T12:10:17.483Z,2.30
2023-04-25T12:12:46.428Z,2.13
2023-04-25T12:15:20.465Z,1.87
2023-04-25T12:17:48.623Z,2.10
2023-04-25T12:20:17.426Z,1.90
2023-04-25T12:22:47.625Z,1.93
2023-04-25T12:25:34.419Z,1.90
2023-04-25T12:28:34.123Z,2.30
2023-04-25T12:31:02.994Z,2.30
2023-04-25T12:33:32.059Z,2.20
2023-04-25T12:35:59.249Z,2.27
2023-04-25T12:38:28.074Z,2.03
2023-04-25T12:40:55.016Z,2.40
2023-04-25T12:43:22.656Z,2.00
2023-04-25T12:45:53.671Z,2.10
2023-04-25T12:48:21.423Z,1.87
2023-04-25T12:50:50.150Z,2.23
2023-04-25T12:53:17.983Z,2.07
2023-04-25T12:55:46.910Z,2.20
2023-04-25T12:58:17.756Z,2.10
2023-04-25T13:00:45.016Z,2.30
2023-04-25T13:03:12.538Z,2.00
2023-04-25T13:05:39.593Z,1.93
2023-04-25T13:08:06.056Z,2.23
2023-04-25T13:10:34.677Z,2.03
2023-04-25T13:13:02.237Z,2.20
2023-04-25T13:15:28.888Z,1.90
2023-04-25T13:17:55.466Z,2.13
2023-04-25T13:20:23.288Z,2.30
2023-04-25T13:22:49.747Z,2.30
2023-04-25T13:25:17.210Z,1.87
2023-04-25T13:27:45.328Z,2.00
2023-04-25T13:30:12.398Z,1.57
2023-04-25T13:32:39.360Z,2.10
2023-04-25T13:35:10.767Z,2.23
2023-04-25T13:37:38.606Z,2.10
2023-04-25T13:40:12.077Z,2.50
2023-04-25T13:42:39.247Z,2.50
2023-04-25T13:45:06.344Z,2.77
2023-04-25T13:47:33.359Z,3.03
2023-04-25T13:50:00.344Z,3.20
2023-04-25T13:52:27.141Z,3.13
2023-04-25T13:54:53.566Z,3.00
2023-04-25T13:57:20.658Z,2.90
2023-04-25T13:59:47.480Z,2.60
2023-04-25T14:02:14.197Z,2.90
2023-04-25T14:04:41.182Z,2.60
2023-04-25T14:07:07.704Z,2.40
2023-04-25T14:09:34.598Z,2.17
2023-04-25T14:12:01.482Z,2.03
2023-04-25T14:14:27.863Z,2.60
2023-04-25T14:16:55.148Z,2.30
2023-04-25T14:19:22.403Z,2.00
2023-04-25T14:21:49.053Z,2.10
2023-04-25T14:24:16.998Z,1.90
2023-04-25T14:26:44.324Z,1.90
2023-04-25T14:29:12.747Z,2.10
2023-04-25T14:31:41.337Z,1.90
2023-04-25T14:34:08.437Z,1.53
2023-04-25T14:36:36.317Z,2.00
2023-04-25T14:39:03.391Z,1.83
2023-04-25T14:41:29.749Z,1.60
2023-04-25T14:43:57.773Z,1.67
2023-04-25T14:46:24.512Z,1.70
2023-04-25T14:48:51.987Z,1.70
2023-04-25T14:51:18.403Z,1.53
2023-04-25T14:53:45.163Z,1.70
2023-04-25T14:56:11.534Z,1.53
2023-04-25T14:58:39.893Z,1.50
2023-04-25T15:01:06.465Z,1.40
2023-04-25T15:03:33.501Z,1.30
2023-04-25T15:06:00.165Z,1.20
2023-04-25T15:08:26.961Z,1.20
2023-04-25T15:10:53.404Z,1.27
2023-04-25T15:13:20.229Z,1.30
2023-04-25T15:15:51.877Z,1.27
2023-04-25T15:18:23.060Z,1.40
2023-04-25T15:20:49.915Z,1.10
2023-04-25T15:23:16.469Z,1.40
2023-04-25T15:25:43.020Z,1.33
2023-04-25T15:28:09.721Z,1.13
2023-04-25T15:30:36.330Z,1.40
2023-04-25T15:33:02.896Z,1.33
2023-04-25T15:35:29.349Z,1.50
2023-04-25T15:37:55.779Z,1.53
2023-04-25T15:40:22.558Z,1.40
2023-04-25T15:42:53.670Z,1.43
2023-04-25T15:45:24.063Z,1.27
2023-04-25T15:47:52.592Z,1.13
2023-04-25T15:50:19.623Z,1.47
2023-04-25T15:52:46.024Z,1.40
2023-04-25T15:55:16.660Z,1.70
2023-04-25T15:57:43.624Z,1.40
2023-04-25T16:00:13.960Z,1.60
2023-04-25T16:02:41.276Z,1.67
2023-04-25T16:05:09.109Z,1.67
2023-04-25T16:07:35.714Z,1.50
2023-04-25T16:10:02.231Z,1.63
2023-04-25T16:12:31.010Z,1.80
2023-04-25T16:14:58.191Z,1.70
2023-04-25T16:17:25.243Z,1.73
2023-04-25T16:19:51.688Z,1.60
2023-04-25T16:22:18.455Z,1.80
2023-04-25T16:24:45.211Z,1.90
2023-04-25T16:27:11.759Z,1.60
2023-04-25T16:29:39.010Z,1.70
2023-04-25T16:32:05.852Z,1.77
2023-04-25T16:34:32.824Z,1.70
2023-04-25T16:36:59.606Z,1.90
2023-04-25T16:39:26.355Z,1.70
2023-04-25T16:41:53.304Z,1.60
2023-04-25T16:44:19.746Z,1.70
2023-04-25T16:46:46.160Z,1.87
2023-04-25T16:49:12.608Z,2.00
2023-04-25T16:51:38.984Z,1.67
2023-04-25T16:54:05.809Z,2.20
2023-04-25T16:56:32.186Z,2.10
2023-04-25T16:58:58.790Z,2.20
2023-04-25T17:01:25.240Z,1.80
2023-04-25T17:03:51.786Z,2.10
2023-04-25T17:06:18.484Z,2.10
2023-04-25T17:08:45.012Z,2.07
2023-04-25T17:11:11.804Z,2.03
2023-04-25T17:13:38.236Z,2.10
2023-04-25T17:16:05.258Z,1.93
2023-04-25T17:18:32.554Z,1.93
2023-04-25T17:20:59.280Z,1.70
2023-04-25T17:23:25.800Z,1.80
2023-04-25T17:25:52.180Z,2.00
2023-04-25T17:28:18.565Z,2.10
2023-04-25T17:30:45.221Z,2.27
2023-04-25T17:33:11.645Z,2.23
2023-04-25T17:35:38.042Z,2.00
2023-04-25T17:38:04.528Z,2.13
2023-04-25T17:40:31.563Z,2.57
2023-04-25T17:42:57.962Z,2.60
2023-04-25T17:45:24.540Z,2.00
2023-04-25T17:47:50.965Z,2.27
2023-04-25T17:50:17.412Z,2.03
2023-04-25T17:52:45.031Z,1.97
2023-04-25T17:55:11.924Z,2.20
2023-04-25T17:57:38.297Z,2.20
2023-04-25T18:00:07.801Z,2.13
2023-04-25T18:02:36.308Z,2.40
2023-04-25T18:05:09.135Z,2.40
2023-04-25T18:07:36.471Z,2.10
2023-04-25T18:10:08.291Z,2.30
2023-04-25T18:12:34.833Z,2.20
2023-04-25T18:15:01.840Z,2.30
2023-04-25T18:17:28.349Z,2.20
2023-04-25T18:19:55.360Z,1.80
2023-04-25T18:22:22.291Z,2.00
2023-04-25T18:24:50.739Z,2.10
2023-04-25T18:27:17.336Z,2.00
2023-04-25T18:29:45.319Z,2.40
2023-04-25T18:32:12.116Z,2.50
2023-04-25T18:34:41.300Z,2.00
2023-04-25T18:37:07.700Z,2.03
2023-04-25T18:39:34.102Z,2.00
2023-04-25T18:42:04.715Z,2.37
2023-04-25T18:44:36.410Z,2.23
2023-04-25T18:47:02.985Z,2.47
2023-04-25T18:49:29.578Z,2.30
2023-04-25T18:51:57.377Z,2.67
2023-04-25T18:54:23.813Z,2.37
2023-04-25T18:56:50.418Z,2.40
2023-04-25T18:59:17.980Z,2.50
2023-04-25T19:01:45.254Z,2.50
2023-04-25T19:04:11.744Z,2.40
2023-04-25T19:06:38.269Z,2.57
2023-04-25T19:09:04.749Z,2.37
2023-04-25T19:11:31.153Z,2.30
2023-04-25T19:13:57.597Z,2.57
2023-04-25T19:16:26.805Z,2.50
2023-04-25T19:18:56.817Z,2.43
2023-04-25T19:21:23.597Z,2.47
2023-04-25T19:23:50.324Z,2.40
2023-04-25T19:26:17.066Z,2.07
2023-04-25T19:28:44.855Z,2.70
2023-04-25T19:31:12.732Z,2.50
2023-04-25T19:33:39.192Z,2.60
2023-04-25T19:36:05.699Z,2.40
2023-04-25T19:38:32.248Z,2.50
2023-04-25T19:40:58.738Z,2.50
2023-04-25T19:43:25.466Z,2.40
2023-04-25T19:45:51.976Z,2.10
2023-04-25T19:48:18.368Z,2.30
2023-04-25T19:50:44.743Z,2.63
2023-04-25T19:53:11.143Z,2.47
2023-04-25T19:55:37.550Z,2.20
2023-04-25T19:58:04.312Z,2.17
2023-04-25T20:00:30.896Z,2.57
2023-04-25T20:02:57.395Z,2.50
2023-04-25T20:05:23.819Z,2.63
2023-04-25T20:07:50.483Z,2.40
2023-04-25T20:10:17.389Z,2.83
2023-04-25T20:12:44.502Z,2.97
2023-04-25T20:15:11.821Z,3.00
2023-04-25T20:17:40.353Z,2.77
2023-04-25T20:20:07.864Z,2.80
2023-04-25T20:22:36.925Z,2.60
2023-04-25T20:25:05.252Z,2.10
2023-04-25T20:27:32.561Z,2.60
2023-04-25T20:30:02.731Z,2.50
2023-04-25T20:32:32.126Z,2.70
2023-04-25T20:34:58.577Z,2.40
2023-04-25T20:37:25.032Z,2.27
2023-04-25T20:39:51.452Z,2.60
2023-04-25T20:42:17.848Z,2.30
2023-04-25T20:44:44.226Z,2.20
2023-04-25T20:47:10.595Z,2.70
2023-04-25T20:49:37.029Z,2.60
2023-04-25T20:52:06.049Z,2.40
2023-04-25T20:54:32.422Z,2.60
2023-04-25T20:57:00.086Z,2.20
2023-04-25T20:59:27.386Z,2.23
2023-04-25T21:01:57.249Z,2.60
2023-04-25T21:04:23.883Z,2.40
2023-04-25T21:06:50.469Z,2.93
2023-04-25T21:09:18.235Z,2.90
2023-04-25T21:11:46.188Z,2.30
2023-04-25T21:14:12.631Z,3.00
2023-04-25T21:16:39.115Z,2.43
2023-04-25T21:19:05.590Z,2.83
2023-04-25T21:21:32.382Z,3.10
2023-04-25T21:23:59.211Z,2.93
2023-04-25T21:26:26.195Z,3.03
2023-04-25T21:28:54.012Z,2.87
2023-04-25T21:31:20.845Z,3.07
2023-04-25T21:33:47.738Z,3.00
2023-04-25T21:36:14.153Z,3.53
2023-04-25T21:38:40.823Z,2.97
2023-04-25T21:41:07.411Z,3.10
2023-04-25T21:43:34.153Z,3.13
2023-04-25T21:48:29.831Z,3.47
2023-04-25T21:50:56.352Z,3.17
2023-04-25T21:53:23.100Z,3.20
2023-04-25T21:55:49.476Z,3.57
2023-04-25T21:58:16.239Z,3.70
2023-04-25T22:00:44.325Z,3.57
2023-04-25T22:03:11.058Z,3.40
2023-04-25T22:05:37.530Z,3.50
2023-04-25T22:08:04.464Z,3.17
2023-04-25T22:10:31.366Z,3.00
2023-04-25T22:12:58.376Z,3.60
2023-04-25T22:15:25.045Z,3.30
2023-04-25T22:17:52.880Z,3.20
2023-04-25T22:20:22.645Z,3.60
2023-04-25T22:22:49.484Z,3.37
2023-04-25T22:25:16.082Z,3.67
2023-04-25T22:27:43.799Z,3.30
2023-04-25T22:30:14.420Z,3.63
2023-04-25T22:32:41.864Z,3.53
2023-04-25T22:35:09.162Z,3.00
2023-04-25T22:37:35.908Z,3.30
2023-04-25T22:40:07.121Z,3.40
2023-04-25T22:42:40.697Z,3.40
2023-04-25T22:45:08.190Z,3.33
2023-04-25T22:47:36.271Z,3.20
2023-04-25T22:50:05.755Z,3.60
2023-04-25T22:52:34.547Z,3.40
2023-04-25T22:55:04.633Z,3.23
2023-04-25T22:57:31.315Z,3.30
2023-04-25T22:59:58.000Z,3.80
2023-04-25T23:02:25.039Z,3.10
2023-04-25T23:04:53.179Z,3.27
2023-04-25T23:07:20.491Z,3.00
2023-04-25T23:09:47.197Z,3.50
2023-04-25T23:12:13.676Z,3.00
2023-04-25T23:14:40.080Z,3.43
2023-04-25T23:17:06.689Z,3.00
2023-04-25T23:19:34.319Z,3.30
2023-04-25T23:22:00.849Z,3.47
2023-04-25T23:24:27.637Z,3.30
2023-04-25T23:26:54.016Z,3.17
2023-04-25T23:29:20.901Z,2.80
2023-04-25T23:31:47.421Z,3.30
2023-04-25T23:34:14.135Z,3.83
2023-04-25T23:36:40.700Z,3.60
2023-04-25T23:39:09.490Z,3.93
2023-04-25T23:41:35.961Z,3.47
2023-04-25T23:44:03.445Z,3.43
2023-04-25T23:46:30.918Z,3.90
2023-04-25T23:48:57.665Z,3.53
2023-04-25T23:51:25.186Z,2.87
2023-04-25T23:53:51.864Z,3.23
2023-04-25T23:56:18.224Z,3.33
2023-04-25T23:58:44.605Z,3.50
